sensor_id;sensor_type;location;lat;lon;timestamp;P1;durP1;ratioP1;P2;durP2;ratioP2
45762;SDS011;37512;52.408;13.356;2022-11-14T00:02:05;73.15;;;32.60;;
45762;SDS011;37512;52.408;13.356;2022-11-14T00:06:07;67.78;;;30.08;;
45762;SDS011;37512;52.408;13.356;2022-11-14T00:10:09;60.25;;;31.13;;
45762;SDS011;37512;52.408;13.356;2022-11-14T00:14:10;63.97;;;31.38;;
45762;SDS011;37512;52.408;13.356;2022-11-14T00:18:12;64.85;;;30.88;;
45762;SDS011;37512;52.408;13.356;2022-11-14T00:22:13;69.28;;;33.40;;
45762;SDS011;37512;52.408;13.356;2022-11-14T00:26:15;72.57;;;33.60;;
45762;SDS011;37512;52.408;13.356;2022-11-14T00:30:16;59.78;;;30.65;;
45762;SDS011;37512;52.408;13.356;2022-11-14T00:34:18;64.85;;;32.85;;
45762;SDS011;37512;52.408;13.356;2022-11-14T00:38:19;70.32;;;30.13;;
45762;SDS011;37512;52.408;13.356;2022-11-14T00:42:21;68.80;;;31.95;;
45762;SDS011;37512;52.408;13.356;2022-11-14T00:46:23;64.22;;;32.65;;
45762;SDS011;37512;52.408;13.356;2022-11-14T00:50:24;72.38;;;33.67;;
45762;SDS011;37512;52.408;13.356;2022-11-14T00:54:26;68.10;;;32.78;;
45762;SDS011;37512;52.408;13.356;2022-11-14T00:58:27;73.00;;;31.42;;
45762;SDS011;37512;52.408;13.356;2022-11-14T01:02:29;74.93;;;34.70;;
45762;SDS011;37512;52.408;13.356;2022-11-14T01:06:31;75.30;;;34.83;;
45762;SDS011;37512;52.408;13.356;2022-11-14T01:10:32;71.20;;;34.17;;
45762;SDS011;37512;52.408;13.356;2022-11-14T01:14:33;63.78;;;30.85;;
45762;SDS011;37512;52.408;13.356;2022-11-14T01:18:35;66.43;;;30.25;;
45762;SDS011;37512;52.408;13.356;2022-11-14T01:22:38;72.97;;;34.90;;
45762;SDS011;37512;52.408;13.356;2022-11-14T01:26:39;72.40;;;33.55;;
45762;SDS011;37512;52.408;13.356;2022-11-14T01:30:41;71.30;;;32.72;;
45762;SDS011;37512;52.408;13.356;2022-11-14T01:34:42;70.97;;;30.95;;
45762;SDS011;37512;52.408;13.356;2022-11-14T01:38:44;59.90;;;30.27;;
45762;SDS011;37512;52.408;13.356;2022-11-14T01:43:32;75.55;;;34.40;;
45762;SDS011;37512;52.408;13.356;2022-11-14T01:47:21;78.35;;;34.63;;
45762;SDS011;37512;52.408;13.356;2022-11-14T01:55:29;71.22;;;31.50;;
45762;SDS011;37512;52.408;13.356;2022-11-14T01:59:40;74.90;;;31.42;;
45762;SDS011;37512;52.408;13.356;2022-11-14T02:03:44;72.88;;;30.83;;
45762;SDS011;37512;52.408;13.356;2022-11-14T02:07:50;77.88;;;33.10;;
45762;SDS011;37512;52.408;13.356;2022-11-14T02:11:52;66.80;;;28.80;;
45762;SDS011;37512;52.408;13.356;2022-11-14T02:15:56;72.45;;;33.47;;
45762;SDS011;37512;52.408;13.356;2022-11-14T02:24:11;80.80;;;32.50;;
45762;SDS011;37512;52.408;13.356;2022-11-14T02:28:14;76.60;;;34.78;;
45762;SDS011;37512;52.408;13.356;2022-11-14T02:32:15;80.68;;;35.03;;
45762;SDS011;37512;52.408;13.356;2022-11-14T02:36:17;80.80;;;34.83;;
45762;SDS011;37512;52.408;13.356;2022-11-14T02:40:18;69.05;;;28.27;;
45762;SDS011;37512;52.408;13.356;2022-11-14T02:44:19;77.25;;;34.15;;
45762;SDS011;37512;52.408;13.356;2022-11-14T02:48:21;81.70;;;32.45;;
45762;SDS011;37512;52.408;13.356;2022-11-14T02:52:23;70.18;;;28.73;;
45762;SDS011;37512;52.408;13.356;2022-11-14T02:56:24;73.93;;;30.17;;
45762;SDS011;37512;52.408;13.356;2022-11-14T03:00:26;74.28;;;32.00;;
45762;SDS011;37512;52.408;13.356;2022-11-14T03:04:28;76.65;;;32.63;;
45762;SDS011;37512;52.408;13.356;2022-11-14T03:08:29;74.97;;;32.88;;
45762;SDS011;37512;52.408;13.356;2022-11-14T03:12:31;74.40;;;33.28;;
45762;SDS011;37512;52.408;13.356;2022-11-14T03:16:33;72.28;;;30.83;;
45762;SDS011;37512;52.408;13.356;2022-11-14T03:20:34;79.25;;;33.05;;
45762;SDS011;37512;52.408;13.356;2022-11-14T03:24:36;68.07;;;30.30;;
45762;SDS011;37512;52.408;13.356;2022-11-14T03:28:37;76.15;;;33.28;;
45762;SDS011;37512;52.408;13.356;2022-11-14T03:32:39;69.57;;;32.03;;
45762;SDS011;37512;52.408;13.356;2022-11-14T03:36:41;72.72;;;30.42;;
45762;SDS011;37512;52.408;13.356;2022-11-14T03:40:42;77.28;;;32.15;;
45762;SDS011;37512;52.408;13.356;2022-11-14T03:44:44;71.55;;;30.08;;
45762;SDS011;37512;52.408;13.356;2022-11-14T03:48:45;77.00;;;32.20;;
45762;SDS011;37512;52.408;13.356;2022-11-14T03:52:50;78.60;;;30.90;;
45762;SDS011;37512;52.408;13.356;2022-11-14T03:56:51;76.45;;;32.55;;
45762;SDS011;37512;52.408;13.356;2022-11-14T04:00:53;74.75;;;31.67;;
45762;SDS011;37512;52.408;13.356;2022-11-14T04:04:56;75.82;;;31.70;;
45762;SDS011;37512;52.408;13.356;2022-11-14T04:08:57;76.00;;;29.75;;
45762;SDS011;37512;52.408;13.356;2022-11-14T04:13:00;76.75;;;31.25;;
45762;SDS011;37512;52.408;13.356;2022-11-14T04:17:01;78.93;;;29.30;;
45762;SDS011;37512;52.408;13.356;2022-11-14T04:21:03;67.13;;;27.52;;
45762;SDS011;37512;52.408;13.356;2022-11-14T04:25:05;70.50;;;29.38;;
45762;SDS011;37512;52.408;13.356;2022-11-14T04:29:07;62.90;;;27.65;;
45762;SDS011;37512;52.408;13.356;2022-11-14T04:33:09;71.03;;;27.85;;
45762;SDS011;37512;52.408;13.356;2022-11-14T04:37:10;69.85;;;30.48;;
45762;SDS011;37512;52.408;13.356;2022-11-14T04:41:12;79.75;;;31.67;;
45762;SDS011;37512;52.408;13.356;2022-11-14T04:45:14;74.38;;;31.05;;
45762;SDS011;37512;52.408;13.356;2022-11-14T04:49:15;75.22;;;29.77;;
45762;SDS011;37512;52.408;13.356;2022-11-14T04:53:17;82.40;;;32.95;;
45762;SDS011;37512;52.408;13.356;2022-11-14T04:57:18;76.78;;;29.88;;
45762;SDS011;37512;52.408;13.356;2022-11-14T05:01:20;86.30;;;33.38;;
45762;SDS011;37512;52.408;13.356;2022-11-14T05:05:21;77.65;;;32.05;;
45762;SDS011;37512;52.408;13.356;2022-11-14T05:09:23;77.50;;;30.63;;
45762;SDS011;37512;52.408;13.356;2022-11-14T05:13:24;72.50;;;31.55;;
45762;SDS011;37512;52.408;13.356;2022-11-14T05:17:26;77.00;;;31.08;;
45762;SDS011;37512;52.408;13.356;2022-11-14T05:21:28;81.25;;;32.55;;
45762;SDS011;37512;52.408;13.356;2022-11-14T05:25:29;76.88;;;31.30;;
45762;SDS011;37512;52.408;13.356;2022-11-14T05:29:31;74.57;;;31.02;;
45762;SDS011;37512;52.408;13.356;2022-11-14T05:33:33;66.97;;;27.60;;
45762;SDS011;37512;52.408;13.356;2022-11-14T05:37:35;84.88;;;32.88;;
45762;SDS011;37512;52.408;13.356;2022-11-14T05:41:36;79.53;;;30.65;;
45762;SDS011;37512;52.408;13.356;2022-11-14T05:45:38;76.57;;;32.00;;
45762;SDS011;37512;52.408;13.356;2022-11-14T05:49:39;78.07;;;32.35;;
45762;SDS011;37512;52.408;13.356;2022-11-14T05:53:41;65.20;;;25.73;;
45762;SDS011;37512;52.408;13.356;2022-11-14T05:57:42;80.20;;;32.83;;
45762;SDS011;37512;52.408;13.356;2022-11-14T06:01:44;80.28;;;34.28;;
45762;SDS011;37512;52.408;13.356;2022-11-14T06:05:45;84.88;;;33.97;;
45762;SDS011;37512;52.408;13.356;2022-11-14T06:09:47;88.07;;;32.47;;
45762;SDS011;37512;52.408;13.356;2022-11-14T06:13:49;91.80;;;34.17;;
45762;SDS011;37512;52.408;13.356;2022-11-14T06:17:51;80.55;;;33.05;;
45762;SDS011;37512;52.408;13.356;2022-11-14T06:21:54;90.40;;;33.75;;
45762;SDS011;37512;52.408;13.356;2022-11-14T06:25:59;79.20;;;32.58;;
45762;SDS011;37512;52.408;13.356;2022-11-14T06:30:02;80.85;;;30.73;;
45762;SDS011;37512;52.408;13.356;2022-11-14T06:34:04;84.93;;;31.83;;
45762;SDS011;37512;52.408;13.356;2022-11-14T06:38:08;82.22;;;30.95;;
45762;SDS011;37512;52.408;13.356;2022-11-14T06:42:10;90.50;;;32.30;;
45762;SDS011;37512;52.408;13.356;2022-11-14T06:46:13;78.45;;;30.30;;
45762;SDS011;37512;52.408;13.356;2022-11-14T06:50:19;89.22;;;33.83;;
45762;SDS011;37512;52.408;13.356;2022-11-14T06:54:21;78.35;;;29.67;;
45762;SDS011;37512;52.408;13.356;2022-11-14T06:58:29;93.38;;;33.97;;
45762;SDS011;37512;52.408;13.356;2022-11-14T07:02:33;79.13;;;31.92;;
45762;SDS011;37512;52.408;13.356;2022-11-14T07:06:35;81.43;;;33.35;;
45762;SDS011;37512;52.408;13.356;2022-11-14T07:10:37;74.18;;;30.27;;
45762;SDS011;37512;52.408;13.356;2022-11-14T07:14:38;70.55;;;31.00;;
45762;SDS011;37512;52.408;13.356;2022-11-14T07:18:43;75.57;;;30.05;;
45762;SDS011;37512;52.408;13.356;2022-11-14T07:22:45;77.47;;;30.70;;
45762;SDS011;37512;52.408;13.356;2022-11-14T07:26:47;78.45;;;32.10;;
45762;SDS011;37512;52.408;13.356;2022-11-14T07:30:49;83.70;;;30.52;;
45762;SDS011;37512;52.408;13.356;2022-11-14T07:34:50;79.18;;;29.95;;
45762;SDS011;37512;52.408;13.356;2022-11-14T07:38:52;84.07;;;33.17;;
45762;SDS011;37512;52.408;13.356;2022-11-14T07:42:57;83.90;;;30.58;;
45762;SDS011;37512;52.408;13.356;2022-11-14T07:47:00;80.13;;;31.10;;
45762;SDS011;37512;52.408;13.356;2022-11-14T07:51:03;71.53;;;29.90;;
45762;SDS011;37512;52.408;13.356;2022-11-14T07:55:06;81.03;;;32.83;;
45762;SDS011;37512;52.408;13.356;2022-11-14T07:59:08;74.75;;;28.70;;
45762;SDS011;37512;52.408;13.356;2022-11-14T08:03:09;80.95;;;30.25;;
45762;SDS011;37512;52.408;13.356;2022-11-14T08:07:11;81.75;;;31.45;;
45762;SDS011;37512;52.408;13.356;2022-11-14T08:11:13;72.72;;;31.15;;
45762;SDS011;37512;52.408;13.356;2022-11-14T08:15:34;72.07;;;29.77;;
45762;SDS011;37512;52.408;13.356;2022-11-14T08:19:36;73.93;;;27.85;;
45762;SDS011;37512;52.408;13.356;2022-11-14T08:23:37;68.88;;;26.98;;
45762;SDS011;37512;52.408;13.356;2022-11-14T08:27:38;70.63;;;28.10;;
45762;SDS011;37512;52.408;13.356;2022-11-14T08:31:40;71.53;;;29.48;;
45762;SDS011;37512;52.408;13.356;2022-11-14T08:35:42;70.30;;;29.17;;
45762;SDS011;37512;52.408;13.356;2022-11-14T08:39:43;70.80;;;29.35;;
45762;SDS011;37512;52.408;13.356;2022-11-14T08:43:46;70.72;;;29.67;;
45762;SDS011;37512;52.408;13.356;2022-11-14T08:47:51;71.88;;;29.00;;
45762;SDS011;37512;52.408;13.356;2022-11-14T08:51:53;71.68;;;27.88;;
45762;SDS011;37512;52.408;13.356;2022-11-14T08:55:54;67.15;;;27.00;;
45762;SDS011;37512;52.408;13.356;2022-11-14T08:59:56;67.72;;;28.50;;
45762;SDS011;37512;52.408;13.356;2022-11-14T09:03:58;57.83;;;26.23;;
45762;SDS011;37512;52.408;13.356;2022-11-14T09:08:01;67.63;;;27.95;;
45762;SDS011;37512;52.408;13.356;2022-11-14T09:12:03;55.83;;;25.38;;
45762;SDS011;37512;52.408;13.356;2022-11-14T09:16:05;64.10;;;27.55;;
45762;SDS011;37512;52.408;13.356;2022-11-14T09:20:07;57.55;;;25.70;;
45762;SDS011;37512;52.408;13.356;2022-11-14T09:24:08;64.75;;;27.13;;
45762;SDS011;37512;52.408;13.356;2022-11-14T09:28:10;54.72;;;24.95;;
45762;SDS011;37512;52.408;13.356;2022-11-14T09:32:11;57.97;;;24.25;;
45762;SDS011;37512;52.408;13.356;2022-11-14T09:36:13;55.55;;;24.38;;
45762;SDS011;37512;52.408;13.356;2022-11-14T09:40:16;50.92;;;22.60;;
45762;SDS011;37512;52.408;13.356;2022-11-14T09:44:24;53.28;;;23.88;;
45762;SDS011;37512;52.408;13.356;2022-11-14T09:48:50;46.85;;;21.90;;
45762;SDS011;37512;52.408;13.356;2022-11-14T09:52:54;47.28;;;22.75;;
45762;SDS011;37512;52.408;13.356;2022-11-14T09:56:57;47.38;;;22.05;;
45762;SDS011;37512;52.408;13.356;2022-11-14T10:01:02;46.90;;;22.50;;
45762;SDS011;37512;52.408;13.356;2022-11-14T10:09:47;45.65;;;20.30;;
45762;SDS011;37512;52.408;13.356;2022-11-14T10:14:04;39.05;;;19.90;;
45762;SDS011;37512;52.408;13.356;2022-11-14T10:22:43;44.60;;;21.70;;
45762;SDS011;37512;52.408;13.356;2022-11-14T10:27:05;60.53;;;21.58;;
45762;SDS011;37512;52.408;13.356;2022-11-14T10:35:27;49.35;;;23.75;;
45762;SDS011;37512;52.408;13.356;2022-11-14T10:43:52;41.83;;;19.90;;
45762;SDS011;37512;52.408;13.356;2022-11-14T10:47:59;43.47;;;20.15;;
45762;SDS011;37512;52.408;13.356;2022-11-14T10:52:08;48.15;;;21.73;;
45762;SDS011;37512;52.408;13.356;2022-11-14T10:56:14;38.50;;;19.50;;
45762;SDS011;37512;52.408;13.356;2022-11-14T11:00:17;36.58;;;18.95;;
45762;SDS011;37512;52.408;13.356;2022-11-14T11:04:24;37.40;;;21.33;;
45762;SDS011;37512;52.408;13.356;2022-11-14T11:08:31;45.65;;;21.05;;
45762;SDS011;37512;52.408;13.356;2022-11-14T11:12:52;42.55;;;21.50;;
45762;SDS011;37512;52.408;13.356;2022-11-14T11:21:49;34.80;;;18.40;;
45762;SDS011;37512;52.408;13.356;2022-11-14T11:25:59;42.38;;;21.25;;
45762;SDS011;37512;52.408;13.356;2022-11-14T11:30:16;41.53;;;19.73;;
45762;SDS011;37512;52.408;13.356;2022-11-14T11:34:41;38.03;;;20.08;;
45762;SDS011;37512;52.408;13.356;2022-11-14T11:38:43;43.50;;;20.92;;
45762;SDS011;37512;52.408;13.356;2022-11-14T11:47:16;36.70;;;19.10;;
45762;SDS011;37512;52.408;13.356;2022-11-14T11:51:19;36.13;;;19.65;;
45762;SDS011;37512;52.408;13.356;2022-11-14T11:55:25;35.28;;;17.70;;
45762;SDS011;37512;52.408;13.356;2022-11-14T11:59:35;33.13;;;17.35;;
45762;SDS011;37512;52.408;13.356;2022-11-14T12:03:48;28.17;;;16.05;;
45762;SDS011;37512;52.408;13.356;2022-11-14T12:07:59;29.67;;;16.92;;
45762;SDS011;37512;52.408;13.356;2022-11-14T12:12:05;31.40;;;16.58;;
45762;SDS011;37512;52.408;13.356;2022-11-14T12:16:38;30.13;;;15.95;;
45762;SDS011;37512;52.408;13.356;2022-11-14T12:21:09;28.48;;;16.30;;
45762;SDS011;37512;52.408;13.356;2022-11-14T12:33:43;27.42;;;15.15;;
45762;SDS011;37512;52.408;13.356;2022-11-14T12:37:53;26.75;;;16.02;;
45762;SDS011;37512;52.408;13.356;2022-11-14T12:42:02;27.73;;;14.73;;
45762;SDS011;37512;52.408;13.356;2022-11-14T12:46:06;23.70;;;13.30;;
45762;SDS011;37512;52.408;13.356;2022-11-14T12:54:42;31.17;;;16.20;;
45762;SDS011;37512;52.408;13.356;2022-11-14T13:11:54;26.00;;;14.98;;
45762;SDS011;37512;52.408;13.356;2022-11-14T13:16:32;28.50;;;15.57;;
45762;SDS011;37512;52.408;13.356;2022-11-14T13:21:00;24.85;;;14.85;;
45762;SDS011;37512;52.408;13.356;2022-11-14T13:25:22;25.95;;;14.40;;
45762;SDS011;37512;52.408;13.356;2022-11-14T13:33:41;23.42;;;13.93;;
45762;SDS011;37512;52.408;13.356;2022-11-14T13:51:06;20.70;;;13.73;;
45762;SDS011;37512;52.408;13.356;2022-11-14T13:55:35;20.15;;;12.60;;
45762;SDS011;37512;52.408;13.356;2022-11-14T14:13:13;22.20;;;12.05;;
45762;SDS011;37512;52.408;13.356;2022-11-14T14:17:18;19.48;;;11.85;;
45762;SDS011;37512;52.408;13.356;2022-11-14T14:33:49;19.77;;;13.10;;
45762;SDS011;37512;52.408;13.356;2022-11-14T14:37:52;21.90;;;13.60;;
45762;SDS011;37512;52.408;13.356;2022-11-14T14:41:56;20.67;;;13.00;;
45762;SDS011;37512;52.408;13.356;2022-11-14T14:45:58;21.08;;;12.93;;
45762;SDS011;37512;52.408;13.356;2022-11-14T14:50:02;21.45;;;12.98;;
45762;SDS011;37512;52.408;13.356;2022-11-14T14:54:18;24.35;;;13.70;;
45762;SDS011;37512;52.408;13.356;2022-11-14T15:02:23;21.98;;;12.90;;
45762;SDS011;37512;52.408;13.356;2022-11-14T15:06:27;21.70;;;13.00;;
45762;SDS011;37512;52.408;13.356;2022-11-14T15:10:39;20.55;;;13.15;;
45762;SDS011;37512;52.408;13.356;2022-11-14T15:14:42;30.33;;;17.55;;
45762;SDS011;37512;52.408;13.356;2022-11-14T15:18:44;24.40;;;14.20;;
45762;SDS011;37512;52.408;13.356;2022-11-14T15:23:03;25.40;;;14.85;;
45762;SDS011;37512;52.408;13.356;2022-11-14T15:27:11;31.13;;;16.00;;
45762;SDS011;37512;52.408;13.356;2022-11-14T15:31:18;27.85;;;15.20;;
45762;SDS011;37512;52.408;13.356;2022-11-14T15:39:26;22.85;;;15.25;;
45762;SDS011;37512;52.408;13.356;2022-11-14T15:47:45;27.73;;;14.82;;
45762;SDS011;37512;52.408;13.356;2022-11-14T15:51:56;28.42;;;14.95;;
45762;SDS011;37512;52.408;13.356;2022-11-14T15:56:02;29.27;;;15.77;;
45762;SDS011;37512;52.408;13.356;2022-11-14T16:00:04;30.60;;;17.23;;
45762;SDS011;37512;52.408;13.356;2022-11-14T16:04:08;24.33;;;16.65;;
45762;SDS011;37512;52.408;13.356;2022-11-14T16:08:14;26.35;;;16.63;;
45762;SDS011;37512;52.408;13.356;2022-11-14T16:12:15;29.58;;;17.10;;
45762;SDS011;37512;52.408;13.356;2022-11-14T16:16:17;31.83;;;16.50;;
45762;SDS011;37512;52.408;13.356;2022-11-14T16:20:20;26.38;;;16.20;;
45762;SDS011;37512;52.408;13.356;2022-11-14T16:24:29;29.30;;;17.70;;
45762;SDS011;37512;52.408;13.356;2022-11-14T16:28:34;27.65;;;16.50;;
45762;SDS011;37512;52.408;13.356;2022-11-14T16:32:36;26.95;;;15.50;;
45762;SDS011;37512;52.408;13.356;2022-11-14T16:36:37;29.52;;;16.88;;
45762;SDS011;37512;52.408;13.356;2022-11-14T16:40:39;28.92;;;17.17;;
45762;SDS011;37512;52.408;13.356;2022-11-14T16:44:44;30.98;;;17.00;;
45762;SDS011;37512;52.408;13.356;2022-11-14T16:48:50;34.47;;;19.48;;
45762;SDS011;37512;52.408;13.356;2022-11-14T16:52:52;34.70;;;20.38;;
45762;SDS011;37512;52.408;13.356;2022-11-14T16:56:54;29.98;;;19.02;;
45762;SDS011;37512;52.408;13.356;2022-11-14T17:00:55;34.03;;;19.08;;
45762;SDS011;37512;52.408;13.356;2022-11-14T17:04:57;29.63;;;17.48;;
45762;SDS011;37512;52.408;13.356;2022-11-14T17:08:58;29.63;;;17.83;;
45762;SDS011;37512;52.408;13.356;2022-11-14T17:13:01;29.85;;;17.00;;
45762;SDS011;37512;52.408;13.356;2022-11-14T17:17:02;32.17;;;19.13;;
45762;SDS011;37512;52.408;13.356;2022-11-14T17:21:07;29.98;;;18.23;;
45762;SDS011;37512;52.408;13.356;2022-11-14T17:25:10;27.90;;;16.83;;
45762;SDS011;37512;52.408;13.356;2022-11-14T17:29:13;35.90;;;20.67;;
45762;SDS011;37512;52.408;13.356;2022-11-14T17:33:15;33.88;;;20.27;;
45762;SDS011;37512;52.408;13.356;2022-11-14T17:37:25;31.73;;;18.58;;
45762;SDS011;37512;52.408;13.356;2022-11-14T17:41:27;32.28;;;18.40;;
45762;SDS011;37512;52.408;13.356;2022-11-14T17:45:29;29.40;;;18.65;;
45762;SDS011;37512;52.408;13.356;2022-11-14T17:49:30;29.67;;;17.10;;
45762;SDS011;37512;52.408;13.356;2022-11-14T17:53:32;27.60;;;17.52;;
45762;SDS011;37512;52.408;13.356;2022-11-14T17:57:34;31.52;;;18.38;;
45762;SDS011;37512;52.408;13.356;2022-11-14T18:01:36;35.05;;;19.52;;
45762;SDS011;37512;52.408;13.356;2022-11-14T18:05:37;36.60;;;19.40;;
45762;SDS011;37512;52.408;13.356;2022-11-14T18:09:39;37.03;;;18.33;;
45762;SDS011;37512;52.408;13.356;2022-11-14T18:13:41;31.27;;;18.38;;
45762;SDS011;37512;52.408;13.356;2022-11-14T18:17:43;29.73;;;17.33;;
45762;SDS011;37512;52.408;13.356;2022-11-14T18:21:45;38.83;;;18.92;;
45762;SDS011;37512;52.408;13.356;2022-11-14T18:25:53;30.75;;;18.58;;
45762;SDS011;37512;52.408;13.356;2022-11-14T18:29:55;37.05;;;19.10;;
45762;SDS011;37512;52.408;13.356;2022-11-14T18:34:16;32.65;;;19.08;;
45762;SDS011;37512;52.408;13.356;2022-11-14T18:38:18;32.67;;;18.85;;
45762;SDS011;37512;52.408;13.356;2022-11-14T18:42:19;33.30;;;19.05;;
45762;SDS011;37512;52.408;13.356;2022-11-14T18:46:22;33.80;;;20.30;;
45762;SDS011;37512;52.408;13.356;2022-11-14T18:50:25;33.10;;;20.52;;
45762;SDS011;37512;52.408;13.356;2022-11-14T18:54:26;32.47;;;20.17;;
45762;SDS011;37512;52.408;13.356;2022-11-14T18:58:28;32.25;;;19.90;;
45762;SDS011;37512;52.408;13.356;2022-11-14T19:02:29;29.83;;;18.60;;
45762;SDS011;37512;52.408;13.356;2022-11-14T19:06:32;33.60;;;19.27;;
45762;SDS011;37512;52.408;13.356;2022-11-14T19:10:35;29.10;;;17.35;;
45762;SDS011;37512;52.408;13.356;2022-11-14T19:14:36;30.95;;;16.95;;
45762;SDS011;37512;52.408;13.356;2022-11-14T19:18:38;32.30;;;19.60;;
45762;SDS011;37512;52.408;13.356;2022-11-14T19:22:39;29.30;;;18.73;;
45762;SDS011;37512;52.408;13.356;2022-11-14T19:26:41;28.27;;;17.20;;
45762;SDS011;37512;52.408;13.356;2022-11-14T19:30:43;29.30;;;17.50;;
45762;SDS011;37512;52.408;13.356;2022-11-14T19:34:44;34.03;;;19.50;;
45762;SDS011;37512;52.408;13.356;2022-11-14T19:38:46;30.55;;;17.92;;
45762;SDS011;37512;52.408;13.356;2022-11-14T19:42:47;36.53;;;20.77;;
45762;SDS011;37512;52.408;13.356;2022-11-14T19:46:53;29.10;;;17.35;;
45762;SDS011;37512;52.408;13.356;2022-11-14T19:51:13;28.35;;;18.15;;
45762;SDS011;37512;52.408;13.356;2022-11-14T19:55:19;33.55;;;17.85;;
45762;SDS011;37512;52.408;13.356;2022-11-14T19:59:20;36.97;;;19.45;;
45762;SDS011;37512;52.408;13.356;2022-11-14T20:03:25;28.95;;;17.15;;
45762;SDS011;37512;52.408;13.356;2022-11-14T20:07:26;32.42;;;19.13;;
45762;SDS011;37512;52.408;13.356;2022-11-14T20:11:28;28.90;;;18.35;;
45762;SDS011;37512;52.408;13.356;2022-11-14T20:15:31;32.88;;;18.27;;
45762;SDS011;37512;52.408;13.356;2022-11-14T20:19:32;31.00;;;18.42;;
45762;SDS011;37512;52.408;13.356;2022-11-14T20:23:34;31.60;;;17.08;;
45762;SDS011;37512;52.408;13.356;2022-11-14T20:27:36;27.40;;;18.50;;
45762;SDS011;37512;52.408;13.356;2022-11-14T20:31:37;28.30;;;17.65;;
45762;SDS011;37512;52.408;13.356;2022-11-14T20:35:39;32.17;;;18.65;;
45762;SDS011;37512;52.408;13.356;2022-11-14T20:39:41;34.53;;;19.33;;
45762;SDS011;37512;52.408;13.356;2022-11-14T20:43:42;35.45;;;18.98;;
45762;SDS011;37512;52.408;13.356;2022-11-14T20:47:44;28.33;;;17.65;;
45762;SDS011;37512;52.408;13.356;2022-11-14T20:51:47;30.27;;;17.92;;
45762;SDS011;37512;52.408;13.356;2022-11-14T20:55:52;31.35;;;18.27;;
45762;SDS011;37512;52.408;13.356;2022-11-14T20:59:54;33.40;;;19.38;;
45762;SDS011;37512;52.408;13.356;2022-11-14T21:03:55;32.42;;;19.35;;
45762;SDS011;37512;52.408;13.356;2022-11-14T21:07:57;31.02;;;20.35;;
45762;SDS011;37512;52.408;13.356;2022-11-14T21:11:58;33.40;;;19.55;;
45762;SDS011;37512;52.408;13.356;2022-11-14T21:16:00;30.30;;;19.23;;
45762;SDS011;37512;52.408;13.356;2022-11-14T21:20:04;34.60;;;19.13;;
45762;SDS011;37512;52.408;13.356;2022-11-14T21:24:06;32.45;;;19.58;;
45762;SDS011;37512;52.408;13.356;2022-11-14T21:28:07;31.65;;;19.45;;
45762;SDS011;37512;52.408;13.356;2022-11-14T21:32:09;34.83;;;20.00;;
45762;SDS011;37512;52.408;13.356;2022-11-14T21:36:11;36.90;;;20.65;;
45762;SDS011;37512;52.408;13.356;2022-11-14T21:40:34;34.47;;;19.27;;
45762;SDS011;37512;52.408;13.356;2022-11-14T21:44:35;34.53;;;20.20;;
45762;SDS011;37512;52.408;13.356;2022-11-14T21:48:38;32.40;;;19.60;;
45762;SDS011;37512;52.408;13.356;2022-11-14T21:52:41;33.75;;;20.90;;
45762;SDS011;37512;52.408;13.356;2022-11-14T21:56:43;36.05;;;20.50;;
45762;SDS011;37512;52.408;13.356;2022-11-14T22:00:44;36.03;;;21.27;;
45762;SDS011;37512;52.408;13.356;2022-11-14T22:04:46;35.67;;;20.98;;
45762;SDS011;37512;52.408;13.356;2022-11-14T22:08:50;39.67;;;21.98;;
45762;SDS011;37512;52.408;13.356;2022-11-14T22:12:54;35.60;;;20.83;;
45762;SDS011;37512;52.408;13.356;2022-11-14T22:16:55;36.15;;;20.40;;
45762;SDS011;37512;52.408;13.356;2022-11-14T22:20:58;36.53;;;20.30;;
45762;SDS011;37512;52.408;13.356;2022-11-14T22:24:59;34.47;;;20.63;;
45762;SDS011;37512;52.408;13.356;2022-11-14T22:29:01;39.90;;;21.85;;
45762;SDS011;37512;52.408;13.356;2022-11-14T22:33:02;40.22;;;21.83;;
45762;SDS011;37512;52.408;13.356;2022-11-14T22:37:04;38.38;;;21.42;;
45762;SDS011;37512;52.408;13.356;2022-11-14T22:41:06;36.42;;;21.63;;
45762;SDS011;37512;52.408;13.356;2022-11-14T22:45:11;41.78;;;22.27;;
45762;SDS011;37512;52.408;13.356;2022-11-14T22:49:13;38.67;;;22.17;;
45762;SDS011;37512;52.408;13.356;2022-11-14T22:53:20;36.75;;;19.80;;
45762;SDS011;37512;52.408;13.356;2022-11-14T22:57:22;35.00;;;21.80;;
45762;SDS011;37512;52.408;13.356;2022-11-14T23:01:27;41.97;;;22.77;;
45762;SDS011;37512;52.408;13.356;2022-11-14T23:05:34;42.70;;;23.00;;
45762;SDS011;37512;52.408;13.356;2022-11-14T23:09:36;36.13;;;20.98;;
45762;SDS011;37512;52.408;13.356;2022-11-14T23:13:39;39.75;;;22.90;;
45762;SDS011;37512;52.408;13.356;2022-11-14T23:17:42;42.10;;;24.60;;
45762;SDS011;37512;52.408;13.356;2022-11-14T23:21:44;39.45;;;22.02;;
45762;SDS011;37512;52.408;13.356;2022-11-14T23:25:45;37.53;;;21.55;;
45762;SDS011;37512;52.408;13.356;2022-11-14T23:29:47;42.17;;;24.30;;
45762;SDS011;37512;52.408;13.356;2022-11-14T23:33:49;41.50;;;24.42;;
45762;SDS011;37512;52.408;13.356;2022-11-14T23:37:53;40.33;;;24.80;;
45762;SDS011;37512;52.408;13.356;2022-11-14T23:41:54;44.10;;;25.35;;
45762;SDS011;37512;52.408;13.356;2022-11-14T23:45:56;43.72;;;24.52;;
45762;SDS011;37512;52.408;13.356;2022-11-14T23:49:58;39.33;;;22.75;;
45762;SDS011;37512;52.408;13.356;2022-11-14T23:54:00;41.47;;;23.98;;
45762;SDS011;37512;52.408;13.356;2022-11-14T23:58:01;37.55;;;23.60;;
